TimeCDT,TemperatureF,Dew PointF,Humidity,Sea Level PressureIn,VisibilityMPH,Wind Direction,Wind SpeedMPH,Gust SpeedMPH,PrecipitationIn,Events,Conditions,WindDirDegrees,DateUTC
12:53 AM,46.9,43.0,86,29.81,10.0,NW,17.3,-,N/A,,Partly Cloudy,320,2013-05-22 05:53:00
1:53 AM,46.0,43.0,89,29.82,10.0,NW,15.0,-,N/A,,Clear,320,2013-05-22 06:53:00
2:11 AM,46.4,42.8,87,29.82,10.0,NNW,17.3,24.2,N/A,,Mostly Cloudy,330,2013-05-22 07:11:00
2:53 AM,46.9,43.0,86,29.85,10.0,NW,13.8,-,N/A,,Overcast,320,2013-05-22 07:53:00
3:15 AM,46.4,42.8,87,29.84,10.0,NNW,15.0,-,N/A,,Overcast,330,2013-05-22 08:15:00
3:53 AM,46.0,44.1,93,29.86,10.0,NW,10.4,-,N/A,,Overcast,320,2013-05-22 08:53:00
4:05 AM,46.4,44.6,93,29.84,9.0,NNW,11.5,18.4,N/A,,Overcast,330,2013-05-22 09:05:00
4:53 AM,46.9,43.0,86,29.86,10.0,NNW,12.7,-,N/A,,Overcast,330,2013-05-22 09:53:00
5:11 AM,46.4,42.8,87,29.84,10.0,NW,12.7,-,N/A,,Overcast,320,2013-05-22 10:11:00
5:40 AM,46.4,42.8,87,29.85,10.0,NW,12.7,-,N/A,,Overcast,310,2013-05-22 10:40:00
5:53 AM,46.0,44.1,93,29.86,10.0,NW,10.4,-,N/A,,Overcast,320,2013-05-22 10:53:00
6:27 AM,46.4,42.8,87,29.85,10.0,NW,12.7,-,N/A,,Overcast,310,2013-05-22 11:27:00
6:53 AM,46.9,43.0,86,29.87,10.0,NW,16.1,-,N/A,,Overcast,320,2013-05-22 11:53:00
7:53 AM,48.0,44.1,86,29.88,10.0,NW,13.8,-,N/A,,Overcast,310,2013-05-22 12:53:00
8:09 AM,48.2,44.6,87,29.86,10.0,NNW,16.1,23.0,N/A,,Overcast,330,2013-05-22 13:09:00
8:24 AM,48.2,44.6,87,29.87,10.0,NW,18.4,25.3,N/A,,Overcast,320,2013-05-22 13:24:00
8:32 AM,48.2,44.6,87,29.87,10.0,NW,16.1,24.2,N/A,,Overcast,320,2013-05-22 13:32:00
8:53 AM,48.9,44.1,83,29.88,10.0,NW,19.6,23.0,N/A,,Overcast,320,2013-05-22 13:53:00
9:03 AM,48.2,44.6,87,29.87,10.0,NW,19.6,27.6,N/A,,Overcast,320,2013-05-22 14:03:00
9:53 AM,51.1,45.0,80,29.89,10.0,NW,18.4,27.6,N/A,,Overcast,320,2013-05-22 14:53:00
10:53 AM,52.0,45.0,77,29.90,10.0,NNW,16.1,24.2,N/A,,Overcast,330,2013-05-22 15:53:00
11:53 AM,55.9,46.9,72,29.90,10.0,NNW,19.6,26.5,N/A,,Overcast,330,2013-05-22 16:53:00
12:53 PM,57.0,46.9,69,29.91,10.0,NNW,18.4,25.3,N/A,,Overcast,330,2013-05-22 17:53:00
1:53 PM,57.0,46.9,69,29.91,10.0,NNW,12.7,23.0,N/A,,Overcast,340,2013-05-22 18:53:00
2:53 PM,59.0,48.9,69,29.91,10.0,NW,18.4,24.2,N/A,,Overcast,320,2013-05-22 19:53:00
3:53 PM,60.1,48.9,67,29.91,10.0,North,13.8,-,N/A,,Overcast,350,2013-05-22 20:53:00
4:53 PM,59.0,48.0,67,29.92,10.0,NNW,13.8,-,N/A,,Overcast,340,2013-05-22 21:53:00
5:11 PM,60.8,48.2,63,29.91,10.0,North,13.8,21.9,N/A,,Overcast,350,2013-05-22 22:11:00
5:42 PM,57.2,48.2,72,29.92,10.0,North,13.8,23.0,N/A,,Overcast,350,2013-05-22 22:42:00
5:53 PM,57.9,48.9,72,29.94,10.0,North,12.7,21.9,N/A,,Overcast,350,2013-05-22 22:53:00
6:53 PM,55.9,48.0,75,29.96,10.0,NNW,15.0,-,N/A,,Overcast,340,2013-05-22 23:53:00
7:53 PM,54.0,46.9,77,29.99,10.0,North,15.0,21.9,N/A,,Overcast,350,2013-05-23 00:53:00
8:53 PM,53.1,46.0,77,30.01,10.0,North,12.7,-,N/A,,Overcast,350,2013-05-23 01:53:00
9:53 PM,51.1,46.9,86,30.05,10.0,North,8.1,-,N/A,,Overcast,350,2013-05-23 02:53:00
10:02 PM,51.8,46.4,82,30.03,10.0,NNW,8.1,-,N/A,,Overcast,340,2013-05-23 03:02:00
10:24 PM,51.8,46.4,82,30.05,10.0,NNW,8.1,-,N/A,,Overcast,340,2013-05-23 03:24:00
10:53 PM,51.1,46.9,86,30.08,10.0,North,10.4,-,N/A,,Overcast,360,2013-05-23 03:53:00
11:29 PM,51.8,46.4,82,30.07,10.0,NNW,10.4,-,N/A,,Overcast,340,2013-05-23 04:29:00
11:53 PM,50.0,46.0,86,30.09,10.0,NNW,9.2,-,N/A,,Overcast,340,2013-05-23 04:53:00